Time;durP1;ratioP1;P1;durP2;ratioP2;P2;SDS_P1;SDS_P2;PMS_P1;PMS_P2;Temp;Humidity;BMP_temperature;BMP_pressure;BME280_temperature;BME280_humidity;BME280_pressure;Samples;Min_cycle;Max_cycle;Signal;HPM_P1;HPM_P2
2020/12/24 00:01:16;;;;;;;24.98;11.70;;;;;;;26.60;35.63;158147.30;1732662;82;21219;-76
2020/12/24 00:03:49;;;;;;;24.32;11.48;;;;;;;26.58;35.78;158140.63;1738160;82;21306;-76
2020/12/24 00:06:21;;;;;;;26.05;11.90;;;;;;;26.70;35.72;158173.88;1726898;82;21381;-77
2020/12/24 00:08:54;;;;;;;28.47;11.43;;;;;;;26.61;35.66;158148.61;1723987;82;21761;-76
2020/12/24 00:11:27;;;;;;;24.92;10.15;;;;;;;26.62;35.74;158151.27;1726734;83;21185;-75
2020/12/24 00:13:59;;;;;;;30.00;10.72;;;;;;;26.62;35.71;158152.58;1720098;82;21427;-76
2020/12/24 00:16:31;;;;;;;25.25;10.75;;;;;;;26.56;35.79;158136.66;1734819;82;21183;-76
2020/12/24 00:19:04;;;;;;;23.45;11.12;;;;;;;26.53;35.97;158128.67;1724102;82;21374;-75
2020/12/24 00:21:39;;;;;;;28.65;11.83;;;;;;;26.55;35.89;158132.69;1732197;82;21179;-75
2020/12/24 00:24:11;;;;;;;28.00;12.47;;;;;;;26.55;35.81;158134.00;1723599;81;21228;-75
2020/12/24 00:26:44;;;;;;;30.15;11.65;;;;;;;26.55;35.73;158132.69;1773406;80;21171;-76
2020/12/24 00:29:16;;;;;;;28.32;12.30;;;;;;;26.56;35.83;158136.66;1756061;81;21368;-76
2020/12/24 00:31:48;;;;;;;31.02;12.47;;;;;;;26.56;35.79;158136.66;1737133;81;21356;-77
2020/12/24 00:34:21;;;;;;;27.65;12.23;;;;;;;26.70;35.52;158173.88;1727161;82;21396;-77
2020/12/24 00:36:55;;;;;;;29.42;12.55;;;;;;;26.73;35.28;158181.86;1722104;82;21230;-77
2020/12/24 00:39:29;;;;;;;28.80;12.40;;;;;;;26.60;35.05;158147.30;1710103;82;21355;-76
2020/12/24 00:42:01;;;;;;;27.62;12.55;;;;;;;26.59;35.26;158144.64;1731202;81;21250;-78
2020/12/24 00:44:33;;;;;;;26.40;12.35;;;;;;;26.59;35.30;158143.28;1737837;82;21321;-77
2020/12/24 00:47:05;;;;;;;24.80;10.75;;;;;;;26.58;35.29;158141.98;1740360;82;21188;-77
2020/12/24 00:49:38;;;;;;;27.87;12.70;;;;;;;26.52;35.08;158123.34;1738737;82;21309;-77
2020/12/24 00:52:11;;;;;;;31.82;11.93;;;;;;;26.44;35.58;158102.11;1721680;82;21313;-77
2020/12/24 00:54:44;;;;;;;24.80;10.78;;;;;;;26.40;35.46;158091.41;1739560;82;21182;-77
2020/12/24 00:57:17;;;;;;;23.47;9.50;;;;;;;26.51;35.23;158120.69;1741914;82;21714;-77
2020/12/24 00:59:49;;;;;;;27.70;10.13;;;;;;;26.56;35.04;158135.34;1741937;82;21317;-77
2020/12/24 01:02:21;;;;;;;28.87;10.45;;;;;;;26.54;35.20;158131.34;1749903;81;21860;-77
2020/12/24 01:04:54;;;;;;;28.12;10.98;;;;;;;26.53;35.39;158128.67;1778040;81;21376;-77
2020/12/24 01:07:26;;;;;;;23.47;9.88;;;;;;;26.30;35.46;158066.20;1752711;81;21805;-77
2020/12/24 01:09:59;;;;;;;26.10;9.60;;;;;;;26.29;35.47;158063.53;1732620;82;21195;-77
2020/12/24 01:12:31;;;;;;;28.90;11.55;;;;;;;26.34;35.54;158075.48;1735498;82;21297;-77
2020/12/24 01:15:07;;;;;;;24.65;10.05;;;;;;;26.25;35.37;158052.89;1735685;83;21187;-76
2020/12/24 01:17:39;;;;;;;28.35;10.98;;;;;;;26.42;35.45;158096.78;1738516;82;21336;-77
2020/12/24 01:20:12;;;;;;;25.00;10.68;;;;;;;26.42;35.48;158098.14;1726063;81;21813;-76
2020/12/24 01:22:44;;;;;;;28.20;10.90;;;;;;;26.45;35.29;158104.77;1721450;82;21325;-76
2020/12/24 01:25:16;;;;;;;28.80;11.35;;;;;;;26.47;35.38;158110.09;1721597;82;21313;-77
2020/12/24 01:27:49;;;;;;;28.83;10.80;;;;;;;26.42;35.25;158098.14;1739022;82;21224;-77
2020/12/24 01:30:21;;;;;;;28.12;11.43;;;;;;;26.54;35.08;158131.34;1728774;83;21291;-77
2020/12/24 01:32:54;;;;;;;24.47;10.40;;;;;;;26.54;35.11;158131.34;1725894;82;21304;-75
2020/12/24 01:35:34;;;;;;;27.07;11.45;;;;;;;26.47;35.44;158110.09;1736510;81;21238;-74
2020/12/24 01:38:20;;;;;;;30.15;11.88;;;;;;;26.49;35.46;158116.72;1735364;82;21388;-74
2020/12/24 01:41:01;;;;;;;27.58;10.53;;;;;;;26.46;35.56;158108.73;1734852;83;21183;-74
2020/12/24 01:43:33;;;;;;;26.77;10.88;;;;;;;26.53;35.63;158126.00;1729888;82;21841;-74
2020/12/24 01:46:06;;;;;;;25.60;9.75;;;;;;;26.61;35.41;158149.97;1738987;82;21329;-74
2020/12/24 01:48:38;;;;;;;22.13;9.50;;;;;;;26.62;35.46;158151.27;1721018;82;21864;-75
2020/12/24 01:51:14;;;;;;;26.75;10.28;;;;;;;26.50;35.67;158118.08;1734189;82;21232;-74
2020/12/24 01:53:46;;;;;;;26.45;10.93;;;;;;;26.61;35.62;158148.61;1739494;81;21871;-74
2020/12/24 01:56:18;;;;;;;24.12;9.28;;;;;;;26.58;35.67;158141.98;1748441;81;21310;-73
2020/12/24 01:58:53;;;;;;;25.85;10.23;;;;;;;26.57;35.44;158139.31;1746409;82;21336;-73
2020/12/24 02:01:26;;;;;;;26.90;10.70;;;;;;;26.60;35.43;158147.30;1746438;81;21186;-74
2020/12/24 02:03:58;;;;;;;22.02;10.18;;;;;;;26.64;35.27;158156.59;1728203;82;21715;-73
2020/12/24 02:06:31;;;;;;;26.70;10.25;;;;;;;26.51;35.35;158120.69;1726133;82;21726;-75
2020/12/24 02:09:03;;;;;;;28.30;10.63;;;;;;;26.33;35.30;158072.83;1730564;82;21177;-73
2020/12/24 02:11:36;;;;;;;26.35;10.85;;;;;;;26.37;35.65;158084.78;1742718;82;21315;-73
2020/12/24 02:14:09;;;;;;;28.62;11.45;;;;;;;26.44;35.56;158102.11;1743281;82;21305;-75
2020/12/24 02:16:41;;;;;;;26.90;11.03;;;;;;;26.42;35.52;158096.78;1750547;82;21162;-73
2020/12/24 02:19:13;;;;;;;27.77;10.88;;;;;;;26.70;35.50;158172.52;1734418;82;21396;-75
2020/12/24 02:21:45;;;;;;;23.85;9.35;;;;;;;26.82;35.19;158205.77;1742747;82;21157;-74
2020/12/24 02:24:18;;;;;;;26.45;10.30;;;;;;;26.71;35.39;158175.17;1722118;83;21185;-74
2020/12/24 02:26:51;;;;;;;19.87;8.45;;;;;;;26.57;35.55;158137.95;1722254;83;21657;-74
2020/12/24 02:29:23;;;;;;;26.80;10.08;;;;;;;26.64;35.60;158156.59;1724316;82;21649;-74
2020/12/24 02:31:56;;;;;;;21.77;10.05;;;;;;;26.75;35.66;158187.12;1699859;82;21883;-74
2020/12/24 02:34:28;;;;;;;26.73;9.68;;;;;;;26.95;35.36;158240.33;1718684;82;21321;-73
2020/12/24 02:37:00;;;;;;;23.85;10.50;;;;;;;27.04;35.31;158264.30;1702433;82;21352;-74
2020/12/24 02:39:32;;;;;;;26.62;11.03;;;;;;;27.06;35.20;158269.63;1723513;82;21224;-74
2020/12/24 02:42:05;;;;;;;25.27;11.15;;;;;;;27.03;35.09;158260.28;1737968;81;21926;-73
2020/12/24 02:44:37;;;;;;;20.48;9.78;;;;;;;26.92;35.23;158230.98;1749002;81;21225;-73
2020/12/24 02:47:10;;;;;;;26.90;11.55;;;;;;;26.89;35.16;158223.05;1747623;82;21175;-74
2020/12/24 02:49:43;;;;;;;27.27;10.93;;;;;;;26.89;34.96;158224.36;1738407;82;21312;-73
2020/12/24 02:52:16;;;;;;;21.95;10.55;;;;;;;26.89;34.95;158223.05;1730107;82;21226;-74
2020/12/24 02:54:48;;;;;;;24.72;10.15;;;;;;;26.87;34.94;158219.03;1733897;82;21325;-74
2020/12/24 02:57:20;;;;;;;22.17;10.65;;;;;;;26.85;34.83;158213.70;1740360;82;21321;-74
2020/12/24 02:59:54;;;;;;;24.40;10.32;;;;;;;26.74;35.41;158184.47;1735155;82;21309;-75
2020/12/24 03:02:27;;;;;;;17.60;8.35;;;;;;;26.63;35.48;158155.25;1732925;82;21504;-75
2020/12/24 03:04:59;;;;;;;26.27;10.10;;;;;;;26.49;35.24;158115.41;1735423;82;21187;-75
2020/12/24 03:07:31;;;;;;;22.75;9.20;;;;;;;26.45;35.49;158106.06;1733356;82;21210;-75
2020/12/24 03:10:06;;;;;;;23.47;9.40;;;;;;;26.36;35.78;158080.81;1736873;82;21318;-76
2020/12/24 03:12:39;;;;;;;21.70;8.73;;;;;;;26.36;35.99;158080.81;1733126;81;21294;-75
2020/12/24 03:15:12;;;;;;;24.05;9.83;;;;;;;26.34;36.02;158075.48;1708513;84;21222;-74
2020/12/24 03:17:45;;;;;;;20.12;7.97;;;;;;;26.36;35.58;158080.81;1719622;82;21325;-75
2020/12/24 03:20:19;;;;;;;21.50;9.95;;;;;;;26.46;35.75;158108.73;1729929;82;21348;-77
2020/12/24 03:22:51;;;;;;;18.32;8.68;;;;;;;26.49;35.46;158116.72;1717063;83;21214;-75
2020/12/24 03:25:24;;;;;;;27.82;9.95;;;;;;;26.46;35.34;158107.44;1735409;82;21214;-75
2020/12/24 03:27:56;;;;;;;23.10;9.83;;;;;;;26.44;35.35;158102.11;1735855;82;21667;-75
2020/12/24 03:30:29;;;;;;;23.45;9.78;;;;;;;26.56;35.16;158136.66;1729569;81;21772;-78
2020/12/24 03:33:01;;;;;;;18.90;9.20;;;;;;;26.60;35.23;158147.30;1735918;81;21140;-77
2020/12/24 03:35:33;;;;;;;20.43;9.08;;;;;;;26.53;35.33;158128.67;1733136;83;21341;-76
2020/12/24 03:38:05;;;;;;;19.15;9.93;;;;;;;26.57;35.29;158137.95;1737850;81;21178;-77
2020/12/24 03:40:38;;;;;;;26.27;10.53;;;;;;;26.64;35.07;158156.59;1739386;82;21305;-77
2020/12/24 03:43:11;;;;;;;21.42;9.48;;;;;;;26.72;35.27;158179.20;1717946;82;21356;-78
2020/12/24 03:45:43;;;;;;;23.42;9.65;;;;;;;26.70;34.75;158173.88;1729717;82;21230;-78
2020/12/24 03:48:15;;;;;;;20.40;9.58;;;;;;;26.73;35.44;158181.86;1722573;82;21182;-78
2020/12/24 03:50:50;;;;;;;21.48;9.33;;;;;;;26.71;35.51;158176.53;1723622;81;22664;-76
2020/12/24 03:53:25;;;;;;;21.12;8.88;;;;;;;26.73;34.99;158180.50;1727852;81;21665;-77
2020/12/24 03:56:01;;;;;;;18.15;8.65;;;;;;;26.74;35.04;158183.16;1736939;81;21355;-76
2020/12/24 03:58:45;;;;;;;19.02;8.93;;;;;;;26.65;34.95;158159.25;1738405;79;21332;-72
2020/12/24 04:01:22;;;;;;;21.20;8.73;;;;;;;26.71;35.20;158176.53;1744748;82;21306;-76
2020/12/24 04:03:57;;;;;;;20.80;8.53;;;;;;;26.55;35.19;158134.00;1740222;79;21174;-80
2020/12/24 04:06:33;;;;;;;22.80;7.97;;;;;;;26.50;35.29;158118.08;1745059;80;21163;-80
2020/12/24 04:09:10;;;;;;;22.25;8.83;;;;;;;26.54;35.04;158130.03;1743963;79;21313;-83
2020/12/24 04:11:45;;;;;;;23.67;9.38;;;;;;;26.47;35.13;158111.39;1743324;81;21376;-83
2020/12/24 04:14:19;;;;;;;22.15;8.80;;;;;;;26.52;35.27;158123.34;1749914;79;21314;-77
2020/12/24 04:16:51;;;;;;;21.65;9.40;;;;;;;26.53;35.24;158128.67;1738835;82;21151;-76
2020/12/24 04:19:24;;;;;;;27.60;10.23;;;;;;;26.51;34.99;158120.69;1748855;82;21315;-75
2020/12/24 04:21:56;;;;;;;23.12;9.33;;;;;;;26.45;35.15;158106.06;1753122;82;21221;-75
2020/12/24 04:24:29;;;;;;;21.42;9.05;;;;;;;26.42;35.08;158098.14;1754575;80;21301;-76
2020/12/24 04:27:01;;;;;;;23.15;8.85;;;;;;;26.46;35.16;158107.44;1752041;82;21717;-73
2020/12/24 04:29:33;;;;;;;21.23;8.08;;;;;;;26.37;35.22;158083.47;1751865;82;21360;-75
2020/12/24 04:32:05;;;;;;;15.48;6.80;;;;;;;26.32;35.02;158070.16;1744406;82;21677;-75
2020/12/24 04:34:38;;;;;;;19.20;7.30;;;;;;;26.25;34.99;158052.89;1744814;80;21321;-76
2020/12/24 04:37:10;;;;;;;21.07;8.35;;;;;;;26.26;35.34;158054.25;1743688;81;21297;-77
2020/12/24 04:39:42;;;;;;;20.77;8.43;;;;;;;26.20;35.24;158039.64;1715075;84;21237;-75
2020/12/24 04:42:16;;;;;;;20.35;7.67;;;;;;;26.10;35.11;158013.03;1743639;81;21368;-75
2020/12/24 04:44:51;;;;;;;14.55;6.62;;;;;;;26.15;35.96;158026.33;1744786;81;21347;-76
2020/12/24 04:47:25;;;;;;;20.97;8.10;;;;;;;26.25;35.53;158052.89;1740679;80;21463;-76
2020/12/24 04:50:02;;;;;;;16.93;7.72;;;;;;;26.13;35.12;158019.70;1747921;80;21313;-73
2020/12/24 04:52:36;;;;;;;16.17;8.20;;;;;;;26.29;35.34;158063.53;1732356;80;21753;-78
2020/12/24 04:55:09;;;;;;;18.55;9.18;;;;;;;26.29;35.36;158062.19;1731876;79;21186;-76
2020/12/24 04:57:43;;;;;;;17.15;7.67;;;;;;;26.32;35.17;158071.53;1728146;82;21831;-75
2020/12/24 05:00:17;;;;;;;20.65;8.98;;;;;;;26.19;35.10;158036.98;1735634;82;21321;-75
2020/12/24 05:03:12;;;;;;;16.67;7.83;;;;;;;26.26;35.98;158054.25;1728597;82;21316;-76
2020/12/24 05:05:46;;;;;;;19.45;7.62;;;;;;;26.17;35.47;158031.66;1730422;82;21329;-73
2020/12/24 05:08:20;;;;;;;19.45;8.30;;;;;;;26.11;35.46;158014.38;1740492;81;21876;-74
2020/12/24 05:11:08;;;;;;;16.93;7.35;;;;;;;26.10;36.90;158013.03;1737905;82;21339;-74
2020/12/24 05:13:41;;;;;;;18.52;8.05;;;;;;;26.18;36.00;158034.31;1730725;81;21329;-73
2020/12/24 05:16:15;;;;;;;17.32;7.75;;;;;;;26.28;35.83;158060.88;1731491;81;21264;-71
2020/12/24 05:18:48;;;;;;;17.05;6.72;;;;;;;26.29;35.68;158063.53;1733854;82;21356;-71
2020/12/24 05:21:33;;;;;;;14.80;7.53;;;;;;;26.21;35.74;158040.94;1730339;80;21781;-75
2020/12/24 05:24:10;;;;;;;19.62;8.35;;;;;;;26.13;35.51;158019.70;1698750;82;21324;-73
2020/12/24 05:26:43;;;;;;;17.27;7.17;;;;;;;26.06;35.67;158001.08;1729327;82;21702;-70
2020/12/24 05:29:15;;;;;;;18.07;7.78;;;;;;;26.11;35.56;158014.38;1742659;81;21389;-75
2020/12/24 05:31:51;;;;;;;15.40;7.00;;;;;;;26.12;35.40;158018.34;1734836;82;21329;-73
2020/12/24 05:34:24;;;;;;;18.20;8.18;;;;;;;26.19;35.35;158035.63;1715326;81;21324;-73
2020/12/24 05:37:14;;;;;;;19.48;7.83;;;;;;;26.18;35.52;158032.95;1730276;81;21819;-72
2020/12/24 05:39:49;;;;;;;14.95;7.17;;;;;;;26.26;35.38;158055.56;1728914;81;21337;-75
2020/12/24 05:42:24;;;;;;;15.85;7.40;;;;;;;26.12;35.53;158017.05;1737163;81;21816;-73
2020/12/24 05:44:55;;;;;;;15.83;7.37;;;;;;;26.08;35.51;158007.75;1732566;81;21333;-72
2020/12/24 05:47:29;;;;;;;18.32;7.65;;;;;;;26.07;35.58;158005.09;1729716;81;21734;-73
2020/12/24 05:50:01;;;;;;;15.83;7.10;;;;;;;26.00;35.69;157986.47;1734550;81;21316;-71
2020/12/24 05:52:34;;;;;;;18.98;7.67;;;;;;;25.92;35.59;157963.94;1737164;81;21848;-76
2020/12/24 05:55:06;;;;;;;16.95;7.55;;;;;;;25.99;35.68;157982.50;1734482;81;21400;-76
2020/12/24 05:57:39;;;;;;;16.93;8.13;;;;;;;25.93;35.34;157966.55;1741397;80;21320;-75
2020/12/24 06:00:12;;;;;;;18.55;7.95;;;;;;;26.10;35.68;158011.72;1743926;82;21352;-80
2020/12/24 06:02:44;;;;;;;16.60;6.87;;;;;;;25.92;35.99;157965.23;1749311;81;21376;-72
2020/12/24 06:05:18;;;;;;;13.80;7.53;;;;;;;26.10;35.88;158013.03;1752016;80;21673;-72
2020/12/24 06:07:56;;;;;;;13.40;6.92;;;;;;;26.06;35.66;158001.08;1733781;82;21195;-72
2020/12/24 06:10:33;;;;;;;15.40;7.33;;;;;;;26.03;36.12;157994.45;1709480;82;21356;-72
2020/12/24 06:13:05;;;;;;;15.23;6.80;;;;;;;26.10;36.32;158011.72;1740767;82;21873;-71
2020/12/24 06:15:38;;;;;;;17.87;7.70;;;;;;;26.10;36.07;158013.03;1696464;82;21280;-72
2020/12/24 06:18:12;;;;;;;17.77;7.53;;;;;;;26.21;35.90;158040.94;1741487;82;21802;-71
2020/12/24 06:20:45;;;;;;;15.93;7.33;;;;;;;26.11;37.18;158014.38;1731414;83;21306;-72
2020/12/24 06:23:18;;;;;;;14.15;6.33;;;;;;;26.15;35.87;158025.03;1703141;83;21372;-71
2020/12/24 06:25:52;;;;;;;19.32;8.13;;;;;;;26.24;35.79;158048.92;1717215;83;21305;-73
2020/12/24 06:28:24;;;;;;;20.25;8.55;;;;;;;26.33;36.00;158072.83;1686010;84;21710;-72
2020/12/24 06:31:00;;;;;;;18.42;8.40;;;;;;;26.34;35.58;158075.48;1723482;83;21178;-72
2020/12/24 06:33:32;;;;;;;17.27;9.45;;;;;;;26.30;35.70;158064.84;1737410;82;21380;-72
2020/12/24 06:36:04;;;;;;;15.23;7.53;;;;;;;26.22;35.60;158044.91;1735586;83;21191;-72
2020/12/24 06:38:49;;;;;;;17.23;8.33;;;;;;;26.16;35.51;158027.64;1725250;82;21304;-72
2020/12/24 06:41:39;;;;;;;14.03;7.25;;;;;;;26.22;35.56;158044.91;1744604;82;21809;-71
2020/12/24 06:44:11;;;;;;;15.88;7.70;;;;;;;26.29;35.64;158063.53;1744955;82;21737;-72
2020/12/24 06:46:59;;;;;;;14.07;6.62;;;;;;;26.28;35.63;158059.52;1732528;83;21299;-72
2020/12/24 06:49:32;;;;;;;15.68;6.78;;;;;;;26.24;35.71;158048.92;1736272;82;21218;-71
2020/12/24 06:52:05;;;;;;;12.45;6.58;;;;;;;26.18;35.99;158034.31;1743391;82;21242;-73
2020/12/24 06:54:43;;;;;;;12.93;6.08;;;;;;;26.16;35.84;158027.64;1739874;82;21814;-71
2020/12/24 06:57:26;;;;;;;14.07;6.53;;;;;;;26.19;35.84;158035.63;1724386;82;21163;-71
2020/12/24 07:00:25;;;;;;;14.07;6.58;;;;;;;26.19;35.74;158035.63;1717738;83;21190;-71
2020/12/24 07:03:00;;;;;;;17.65;7.37;;;;;;;26.06;35.85;158001.08;1728854;81;21155;-71
2020/12/24 07:05:47;;;;;;;13.83;6.22;;;;;;;25.93;37.03;157967.89;1697071;82;21321;-71
2020/12/24 07:08:44;;;;;;;14.65;6.28;;;;;;;26.20;35.83;158038.28;1752943;81;21360;-72
2020/12/24 07:11:47;;;;;;;14.07;6.67;;;;;;;26.25;35.91;158051.59;1761117;81;21723;-71
2020/12/24 07:14:36;;;;;;;15.43;6.58;;;;;;;26.27;35.59;158056.91;1678723;84;21220;-72
2020/12/24 07:17:17;;;;;;;12.93;6.58;;;;;;;26.27;35.31;158056.91;1655782;86;21828;-72
2020/12/24 07:19:51;;;;;;;15.13;7.00;;;;;;;26.39;35.73;158090.09;1714312;82;21324;-73
2020/12/24 07:22:23;;;;;;;14.43;6.92;;;;;;;26.34;35.55;158075.48;1744032;81;21779;-71
2020/12/24 07:25:03;;;;;;;13.80;6.75;;;;;;;26.20;35.50;158038.28;1701872;82;21169;-74
2020/12/24 07:27:50;;;;;;;14.10;6.60;;;;;;;25.90;35.44;157958.61;1739534;82;21376;-72
2020/12/24 07:30:23;;;;;;;15.25;7.22;;;;;;;26.25;35.59;158052.89;1743261;81;21709;-73
2020/12/24 07:32:56;;;;;;;16.90;6.53;;;;;;;26.20;35.65;158038.28;1765185;80;21536;-70
2020/12/24 07:35:28;;;;;;;15.88;7.10;;;;;;;26.05;35.51;157998.42;1745298;82;21186;-71
2020/12/24 07:38:00;;;;;;;16.75;6.72;;;;;;;25.97;35.38;157977.19;1759219;81;21494;-71
2020/12/24 07:40:33;;;;;;;16.25;7.33;;;;;;;26.19;35.70;158035.63;1736151;82;21191;-71
2020/12/24 07:43:11;;;;;;;16.27;7.17;;;;;;;26.07;35.77;158003.75;1744764;82;21942;-72
2020/12/24 07:45:44;;;;;;;15.75;7.08;;;;;;;26.05;35.81;157998.42;1743115;80;21305;-73
2020/12/24 07:48:24;;;;;;;16.25;7.60;;;;;;;26.15;35.83;158025.03;1751919;80;21247;-73
2020/12/24 07:50:56;;;;;;;17.05;7.10;;;;;;;26.23;35.65;158046.27;1714887;82;21333;-73
2020/12/24 07:53:29;;;;;;;17.20;7.70;;;;;;;26.26;35.76;158054.25;1674082;84;21225;-75
2020/12/24 07:56:08;;;;;;;17.80;7.53;;;;;;;26.28;35.76;158059.52;1692885;82;21310;-73
2020/12/24 07:58:47;;;;;;;19.45;7.50;;;;;;;26.21;35.84;158040.94;1696216;82;21268;-74
2020/12/24 08:01:21;;;;;;;18.42;8.68;;;;;;;26.29;35.69;158063.53;1736512;82;21187;-74
2020/12/24 08:03:59;;;;;;;15.50;7.83;;;;;;;26.15;35.49;158026.33;1751802;81;21186;-75
2020/12/24 08:06:35;;;;;;;17.07;8.75;;;;;;;26.40;35.92;158091.41;1749407;81;21325;-75
2020/12/24 08:09:17;;;;;;;19.65;9.45;;;;;;;26.24;35.87;158050.23;1739962;82;21349;-75
2020/12/24 08:11:58;;;;;;;16.85;8.20;;;;;;;26.27;35.79;158056.91;1729474;82;22361;-77
2020/12/24 08:14:31;;;;;;;17.62;7.67;;;;;;;26.30;35.64;158064.84;1740488;82;21705;-75
2020/12/24 08:17:28;;;;;;;16.82;8.10;;;;;;;26.31;35.62;158068.86;1732041;82;21242;-78
2020/12/24 08:20:08;;;;;;;19.02;8.23;;;;;;;26.25;35.75;158051.59;1739971;82;21199;-73
2020/12/24 08:22:59;;;;;;;16.83;7.00;;;;;;;25.88;35.55;157953.28;1736670;82;22237;-77
2020/12/24 08:25:30;;;;;;;14.55;7.33;;;;;;;26.05;35.78;157999.78;1734944;82;21783;-74
2020/12/24 08:28:04;;;;;;;16.57;7.40;;;;;;;26.04;35.93;157995.81;1733952;81;21341;-73
2020/12/24 08:30:39;;;;;;;15.88;7.22;;;;;;;25.92;35.63;157963.94;1727586;82;21239;-71
2020/12/24 08:33:12;;;;;;;14.68;7.42;;;;;;;25.95;35.91;157971.86;1723367;81;21220;-75
2020/12/24 08:35:44;;;;;;;13.90;6.78;;;;;;;25.42;36.00;157831.08;1737024;82;21195;-75
2020/12/24 08:38:18;;;;;;;11.48;5.67;;;;;;;25.85;35.52;157945.31;1727049;82;21228;-72
2020/12/24 08:40:50;;;;;;;12.13;5.72;;;;;;;25.54;35.90;157862.94;1728399;82;21209;-72
2020/12/24 08:43:22;;;;;;;13.40;6.87;;;;;;;25.59;36.24;157876.19;1724761;82;21763;-71
2020/12/24 08:45:55;;;;;;;10.88;5.50;;;;;;;25.47;36.01;157844.33;1661960;84;21223;-71
2020/12/24 08:48:36;;;;;;;11.43;5.28;;;;;;;25.07;35.83;157738.11;1712577;82;21221;-74
2020/12/24 08:51:15;;;;;;;;;;;;;;;25.15;35.95;157758.08;1734105;81;21225;-72
2020/12/24 08:53:49;;;;;;;9.30;4.35;;;;;;;25.45;35.99;157839.06;1718889;82;20203;-73
2020/12/24 08:56:22;;;;;;;8.60;5.05;;;;;;;24.67;36.30;157630.62;1742463;82;21347;-71
2020/12/24 08:58:55;;;;;;;12.05;5.33;;;;;;;25.18;36.14;157767.36;1733485;82;21170;-73
2020/12/24 09:01:28;;;;;;;10.10;5.40;;;;;;;25.20;36.30;157772.69;1725486;82;21223;-72
2020/12/24 09:04:05;;;;;;;10.98;5.87;;;;;;;25.64;36.45;157889.50;1706051;82;21417;-71
2020/12/24 09:06:37;;;;;;;9.55;5.15;;;;;;;25.68;36.05;157900.13;1706718;82;21318;-74
2020/12/24 09:09:11;;;;;;;10.95;6.17;;;;;;;25.82;36.15;157938.69;1715856;83;21218;-70
2020/12/24 09:11:44;;;;;;;11.68;5.33;;;;;;;25.91;36.00;157962.58;1689158;84;21250;-71
2020/12/24 09:14:19;;;;;;;14.15;5.20;;;;;;;25.71;36.03;157908.06;1711816;84;21871;-70
2020/12/24 09:17:07;;;;;;;9.35;4.92;;;;;;;25.08;36.01;157740.78;1712721;84;21330;-70
2020/12/24 09:19:38;;;;;;;10.53;5.65;;;;;;;24.98;35.87;157712.88;1712848;84;21690;-69
2020/12/24 09:22:10;;;;;;;9.03;4.87;;;;;;;25.60;35.86;157878.86;1712897;84;21372;-71
2020/12/24 09:24:49;;;;;;;8.58;4.50;;;;;;;25.33;35.93;157805.84;1665844;84;21199;-69
2020/12/24 09:27:22;;;;;;;6.60;4.10;;;;;;;25.53;35.79;157860.28;1712808;84;21346;-70
2020/12/24 09:29:54;;;;;;;8.45;4.95;;;;;;;25.11;36.10;157747.39;1712981;84;21380;-70
2020/12/24 09:32:26;;;;;;;9.83;4.70;;;;;;;25.39;35.51;157823.11;1713199;84;21341;-70
2020/12/24 09:34:58;;;;;;;6.40;4.67;;;;;;;25.47;35.74;157844.33;1713086;84;21388;-70
2020/12/24 09:37:31;;;;;;;7.87;5.08;;;;;;;25.80;35.93;157933.36;1712829;84;21326;-70
2020/12/24 09:40:03;;;;;;;8.23;4.67;;;;;;;25.86;35.89;157947.97;1713194;84;21824;-70
2020/12/24 09:42:35;;;;;;;7.58;4.60;;;;;;;25.58;35.63;157874.89;1712859;84;21694;-70
2020/12/24 09:45:08;;;;;;;8.28;4.95;;;;;;;25.97;36.01;157978.55;1712830;84;21413;-70
2020/12/24 09:47:42;;;;;;;7.67;5.22;;;;;;;26.19;36.10;158035.63;1712865;84;21816;-70
2020/12/24 09:50:14;;;;;;;9.15;4.67;;;;;;;26.42;35.85;158096.78;1712914;84;21332;-68
2020/12/24 09:52:46;;;;;;;10.90;5.00;;;;;;;26.43;35.69;158099.44;1713073;83;21211;-68
2020/12/24 09:55:19;;;;;;;8.18;5.00;;;;;;;26.42;35.68;158098.14;1713008;84;21206;-68
2020/12/24 09:57:51;;;;;;;10.60;5.45;;;;;;;26.52;35.93;158124.70;1712887;84;21370;-68
2020/12/24 10:00:24;;;;;;;7.25;4.58;;;;;;;26.39;35.46;158088.80;1712947;84;21333;-68
2020/12/24 10:02:56;;;;;;;8.73;4.92;;;;;;;26.48;35.83;158114.06;1741288;81;21407;-68
2020/12/24 10:05:29;;;;;;;6.40;4.33;;;;;;;26.53;35.68;158126.00;1751397;82;21202;-68
2020/12/24 10:08:02;;;;;;;8.80;4.90;;;;;;;26.43;35.79;158100.80;1744182;82;21816;-68
2020/12/24 10:10:35;;;;;;;6.60;4.17;;;;;;;26.34;35.96;158075.48;1751753;82;21336;-68
2020/12/24 10:13:09;;;;;;;7.45;4.35;;;;;;;26.24;35.85;158050.23;1751308;82;21250;-68
2020/12/24 10:15:41;;;;;;;6.50;4.03;;;;;;;26.33;35.95;158072.83;1743939;82;21760;-68
2020/12/24 10:18:13;;;;;;;10.20;5.83;;;;;;;26.45;35.92;158106.06;1751450;82;21194;-68
2020/12/24 10:20:45;;;;;;;16.45;8.08;;;;;;;26.33;35.76;158072.83;1751244;82;21202;-68
2020/12/24 10:23:18;;;;;;;16.48;7.78;;;;;;;26.31;35.73;158068.86;1751419;82;21178;-68
2020/12/24 10:25:53;;;;;;;18.70;8.85;;;;;;;26.28;35.80;158060.88;1743947;82;21238;-68
2020/12/24 10:28:25;;;;;;;16.48;7.60;;;;;;;26.23;35.79;158046.27;1744177;82;21827;-68
2020/12/24 10:30:57;;;;;;;15.83;7.03;;;;;;;25.93;35.33;157966.55;1751463;82;21836;-68
2020/12/24 10:33:29;;;;;;;17.73;7.90;;;;;;;25.75;35.34;157918.70;1743395;82;21205;-70
2020/12/24 10:36:02;;;;;;;17.55;9.63;;;;;;;26.28;35.74;158059.52;1751453;82;21269;-68
2020/12/24 10:38:36;;;;;;;18.15;7.45;;;;;;;26.16;35.58;158027.64;1744221;82;21199;-68
2020/12/24 10:41:08;;;;;;;18.87;8.75;;;;;;;26.32;35.52;158070.16;1744079;82;21190;-68
2020/12/24 10:43:40;;;;;;;18.23;8.70;;;;;;;26.30;35.62;158064.84;1721102;82;21236;-68
2020/12/24 10:46:25;;;;;;;19.90;8.73;;;;;;;26.40;35.68;158091.41;1751419;82;21183;-68
2020/12/24 10:48:53;;;;;;;19.42;9.05;;;;;;;26.29;35.61;158062.19;1751436;81;21193;-68
2020/12/24 10:51:26;;;;;;;15.20;7.85;;;;;;;26.22;35.19;158044.91;1751651;82;21194;-68
2020/12/24 10:53:58;;;;;;;17.98;7.90;;;;;;;26.19;35.67;158035.63;1744522;82;21717;-68
2020/12/24 10:56:30;;;;;;;15.70;7.37;;;;;;;26.19;35.75;158036.98;1743963;82;21697;-68
2020/12/24 10:59:02;;;;;;;22.27;8.38;;;;;;;26.22;35.73;158043.59;1751440;82;21884;-68
2020/12/24 11:01:34;;;;;;;15.60;7.72;;;;;;;26.30;35.83;158066.20;1751434;82;21384;-68
2020/12/24 11:04:08;;;;;;;16.20;8.05;;;;;;;26.28;35.80;158059.52;1746006;82;21345;-68
2020/12/24 11:06:43;;;;;;;14.95;8.23;;;;;;;26.17;35.64;158030.30;1742356;81;21329;-68
2020/12/24 11:09:14;;;;;;;20.48;8.05;;;;;;;26.09;35.76;158009.06;1749390;82;21328;-68
2020/12/24 11:11:47;;;;;;;18.23;8.98;;;;;;;26.03;35.54;157993.16;1749361;82;21237;-68
2020/12/24 11:14:19;;;;;;;16.82;8.20;;;;;;;25.99;35.70;157983.81;1749337;82;21336;-68
2020/12/24 11:16:51;;;;;;;17.27;8.33;;;;;;;26.06;35.77;158001.08;1741706;82;21234;-68
2020/12/24 11:19:23;;;;;;;15.00;8.05;;;;;;;25.75;35.30;157918.70;1749213;82;21324;-68
2020/12/24 11:21:56;;;;;;;15.10;8.33;;;;;;;25.75;35.21;157918.70;1749153;82;21369;-68
2020/12/24 11:24:28;;;;;;;15.50;7.97;;;;;;;25.65;35.32;157893.45;1749323;82;21328;-70
2020/12/24 11:27:00;;;;;;;15.83;7.53;;;;;;;25.72;35.71;157910.72;1749273;82;21178;-68
2020/12/24 11:29:33;;;;;;;17.75;8.53;;;;;;;25.63;35.51;157888.14;1741512;82;21793;-68
2020/12/24 11:32:05;;;;;;;14.68;8.13;;;;;;;25.67;35.83;157898.78;1749343;82;21340;-67
2020/12/24 11:34:37;;;;;;;16.20;7.90;;;;;;;25.65;35.56;157893.45;1749323;82;21178;-68
2020/12/24 11:37:10;;;;;;;15.23;8.08;;;;;;;25.59;35.70;157877.56;1749182;82;21383;-68
2020/12/24 11:39:42;;;;;;;15.23;8.28;;;;;;;25.66;36.02;157894.81;1719428;82;21316;-68
2020/12/24 11:42:15;;;;;;;16.52;8.05;;;;;;;25.64;35.77;157889.50;1741653;82;21198;-68
2020/12/24 11:44:47;;;;;;;17.70;9.23;;;;;;;25.80;35.71;157933.36;1749179;82;21375;-68
2020/12/24 11:47:19;;;;;;;13.03;7.28;;;;;;;25.90;35.11;157958.61;1741609;82;21368;-68
2020/12/24 11:49:52;;;;;;;14.55;7.53;;;;;;;25.84;35.69;157942.66;1749255;82;21183;-68